createdAt,value
2019-05-13T00:00:17.225Z,44.63
2019-05-13T00:02:47.119Z,44.33
2019-05-13T00:05:17.887Z,44.57
2019-05-13T00:07:47.573Z,44.20
2019-05-13T00:10:17.433Z,44.43
2019-05-13T00:12:47.209Z,44.60
2019-05-13T00:15:17.023Z,44.50
2019-05-13T00:17:46.791Z,44.43
2019-05-13T00:20:16.615Z,44.73
2019-05-13T00:22:46.471Z,44.13
2019-05-13T00:25:16.263Z,44.27
2019-05-13T00:27:46.004Z,43.90
2019-05-13T00:30:16.821Z,44.17
2019-05-13T00:32:46.625Z,44.40
2019-05-13T00:35:16.407Z,44.50
2019-05-13T00:37:46.094Z,44.30
2019-05-13T00:40:15.854Z,44.63
2019-05-13T00:42:45.629Z,44.20
2019-05-13T00:45:15.455Z,44.10
2019-05-13T00:47:45.267Z,44.27
2019-05-13T00:50:15.112Z,43.90
2019-05-13T00:52:46.122Z,43.90
2019-05-13T00:55:16.774Z,44.43
2019-05-13T00:57:46.565Z,44.07
2019-05-13T01:00:16.511Z,44.57
2019-05-13T01:02:46.230Z,43.87
2019-05-13T01:05:16.001Z,43.93
2019-05-13T01:07:45.782Z,43.93
2019-05-13T01:10:15.609Z,43.90
2019-05-13T01:12:45.343Z,43.80
2019-05-13T01:15:15.286Z,43.90
2019-05-13T01:17:45.115Z,44.33
2019-05-13T01:20:15.304Z,44.10
2019-05-13T01:22:45.015Z,44.50
2019-05-13T01:25:15.743Z,43.77
2019-05-13T01:27:45.437Z,44.47
2019-05-13T01:30:15.435Z,44.10
2019-05-13T01:32:45.211Z,44.10
2019-05-13T01:35:15.991Z,44.60
2019-05-13T01:37:46.299Z,44.50
2019-05-13T01:40:16.399Z,43.67
2019-05-13T01:42:46.192Z,43.43
2019-05-13T01:45:16.231Z,43.63
2019-05-13T01:47:46.004Z,43.83
2019-05-13T01:50:15.851Z,45.07
2019-05-13T01:52:45.582Z,46.23
2019-05-13T01:55:15.508Z,46.53
2019-05-13T01:57:45.244Z,47.20
2019-05-13T02:00:15.294Z,47.83
2019-05-13T02:02:45.070Z,47.37
2019-05-13T02:05:14.934Z,47.47
2019-05-13T02:07:56.836Z,47.40
2019-05-13T02:10:17.956Z,47.03
2019-05-13T02:12:48.688Z,47.30
2019-05-13T02:15:18.528Z,47.13
2019-05-13T02:17:48.228Z,47.73
2019-05-13T02:20:18.001Z,48.57
2019-05-13T02:22:47.823Z,47.97
2019-05-13T02:25:17.524Z,48.90
2019-05-13T02:27:47.455Z,48.33
2019-05-13T02:30:17.284Z,50.30
2019-05-13T02:32:46.991Z,49.90
2019-05-13T02:35:16.737Z,49.73
2019-05-13T02:37:46.430Z,48.83
2019-05-13T02:40:16.262Z,48.80
2019-05-13T02:42:45.991Z,49.77
2019-05-13T02:45:15.838Z,49.10
2019-05-13T02:47:45.633Z,48.60
2019-05-13T02:50:16.004Z,48.53
2019-05-13T02:52:45.720Z,48.10
2019-05-13T02:55:15.593Z,47.60
2019-05-13T02:57:45.308Z,47.73
2019-05-13T03:00:15.279Z,47.57
2019-05-13T03:02:45.004Z,47.37
2019-05-13T03:05:15.271Z,47.70
2019-05-13T03:07:45.139Z,47.30
2019-05-13T03:10:14.997Z,47.77
2019-05-13T03:12:44.697Z,47.33
2019-05-13T03:15:14.637Z,47.00
2019-05-13T03:18:03.474Z,47.07
2019-05-13T03:20:33.685Z,47.07
2019-05-13T03:23:03.533Z,47.47
2019-05-13T03:25:33.498Z,47.27
2019-05-13T03:28:03.560Z,47.60
2019-05-13T03:30:35.600Z,47.07
2019-05-13T03:33:10.942Z,47.27
2019-05-13T03:35:37.543Z,46.90
2019-05-13T03:38:07.455Z,47.00
2019-05-13T03:40:42.501Z,47.27
2019-05-13T03:43:12.897Z,47.23
2019-05-13T03:45:43.574Z,47.80
2019-05-13T03:48:13.572Z,48.37
2019-05-13T03:50:43.532Z,48.23
2019-05-13T03:53:13.442Z,48.60
2019-05-13T03:55:44.432Z,48.13
2019-05-13T03:58:14.378Z,48.77
2019-05-13T04:00:44.266Z,48.80
2019-05-13T04:03:14.089Z,48.47
2019-05-13T04:05:44.117Z,48.57
2019-05-13T04:08:16.425Z,48.57
2019-05-13T04:10:46.271Z,48.07
2019-05-13T04:13:16.223Z,48.23
2019-05-13T04:15:46.488Z,48.40
2019-05-13T04:18:16.332Z,48.20
2019-05-13T04:20:46.164Z,48.50
2019-05-13T04:23:16.517Z,48.23
2019-05-13T04:25:46.282Z,48.10
2019-05-13T04:28:15.992Z,48.10
2019-05-13T04:30:45.853Z,47.47
2019-05-13T04:33:15.601Z,47.77
2019-05-13T04:35:45.455Z,47.00
2019-05-13T04:38:15.141Z,47.10
2019-05-13T04:40:45.056Z,47.17
2019-05-13T04:43:14.847Z,46.87
2019-05-13T04:45:44.641Z,46.80
2019-05-13T04:48:14.503Z,46.90
2019-05-13T04:50:44.280Z,46.80
2019-05-13T04:53:14.155Z,46.53
2019-05-13T04:55:44.254Z,47.03
2019-05-13T04:58:14.106Z,46.60
2019-05-13T05:01:32.439Z,46.63
2019-05-13T05:04:24.261Z,46.50
2019-05-13T05:06:58.849Z,46.63
2019-05-13T05:13:17.157Z,46.20
2019-05-13T05:16:14.034Z,45.90
2019-05-13T05:19:12.295Z,46.83
2019-05-13T05:22:13.254Z,47.17
2019-05-13T05:24:55.150Z,45.83
2019-05-13T05:28:03.561Z,46.00
2019-05-13T05:31:05.157Z,46.17
2019-05-13T05:34:11.663Z,46.20
2019-05-13T05:37:13.976Z,46.37
2019-05-13T05:39:44.124Z,46.77
2019-05-13T05:42:15.619Z,46.47
2019-05-13T05:44:46.890Z,46.60
2019-05-13T05:47:17.255Z,46.63
2019-05-13T05:49:47.311Z,46.70
2019-05-13T05:52:21.245Z,47.30
2019-05-13T05:54:52.929Z,46.77
2019-05-13T05:57:25.974Z,46.77
2019-05-13T05:59:56.748Z,46.80
2019-05-13T06:02:27.998Z,47.00
2019-05-13T06:04:58.246Z,47.07
2019-05-13T06:07:28.206Z,46.70
2019-05-13T06:09:57.955Z,47.33
2019-05-13T06:12:28.075Z,47.10
2019-05-13T06:14:58.778Z,46.90
2019-05-13T06:17:28.577Z,46.97
2019-05-13T06:20:03.279Z,47.37
2019-05-13T06:22:32.105Z,46.90
2019-05-13T06:25:02.038Z,46.80
2019-05-13T06:27:31.919Z,47.10
2019-05-13T06:30:02.499Z,47.63
2019-05-13T06:32:32.543Z,47.77
2019-05-13T06:35:02.625Z,47.30
2019-05-13T06:37:35.646Z,47.67
2019-05-13T06:40:06.548Z,48.53
2019-05-13T06:42:36.397Z,48.13
2019-05-13T06:45:06.544Z,47.27
2019-05-13T06:47:36.405Z,47.67
2019-05-13T06:50:06.999Z,47.50
2019-05-13T06:52:36.784Z,47.20
2019-05-13T06:55:06.978Z,47.60
2019-05-13T06:57:36.677Z,47.90
2019-05-13T07:00:06.850Z,47.57
2019-05-13T07:02:36.554Z,48.07
2019-05-13T07:05:06.665Z,47.43
2019-05-13T07:07:36.482Z,48.93
2019-05-13T07:10:06.605Z,48.07
2019-05-13T07:12:36.316Z,48.40
2019-05-13T07:15:06.253Z,47.77
2019-05-13T07:17:35.963Z,48.37
2019-05-13T07:20:06.379Z,48.37
2019-05-13T07:22:36.148Z,48.20
2019-05-13T07:25:05.999Z,48.37
2019-05-13T07:27:35.962Z,48.03
2019-05-13T07:30:06.460Z,47.90
2019-05-13T07:32:36.185Z,48.03
2019-05-13T07:35:06.870Z,47.90
2019-05-13T07:37:41.785Z,48.60
2019-05-13T07:40:11.748Z,47.73
2019-05-13T07:42:42.057Z,47.83
2019-05-13T07:45:12.386Z,48.27
2019-05-13T07:47:42.160Z,48.33
2019-05-13T07:50:12.847Z,48.47
2019-05-13T07:52:42.746Z,48.33
2019-05-13T07:55:14.067Z,48.90
2019-05-13T07:57:44.841Z,49.63
2019-05-13T08:00:14.708Z,49.70
2019-05-13T08:02:44.424Z,50.30
2019-05-13T08:05:14.664Z,50.93
2019-05-13T08:07:45.416Z,51.17
2019-05-13T08:10:15.249Z,51.73
2019-05-13T08:12:45.046Z,51.87
2019-05-13T08:15:17.100Z,52.53
2019-05-13T08:17:47.663Z,52.10
2019-05-13T08:20:18.305Z,52.80
2019-05-13T08:22:48.038Z,52.63
2019-05-13T08:25:17.729Z,53.30
2019-05-13T08:27:47.424Z,52.83
2019-05-13T08:30:18.457Z,52.90
2019-05-13T08:32:49.375Z,56.27
2019-05-13T08:35:19.199Z,53.10
2019-05-13T08:37:48.966Z,53.07
2019-05-13T08:40:20.448Z,53.27
2019-05-13T08:42:52.001Z,53.47
2019-05-13T08:45:22.433Z,53.40
2019-05-13T08:47:52.230Z,53.43
2019-05-13T08:50:22.188Z,53.37
2019-05-13T08:52:51.911Z,53.07
2019-05-13T08:55:21.679Z,52.70
2019-05-13T08:57:55.139Z,52.87
2019-05-13T09:00:52.510Z,53.10
2019-05-13T09:03:44.617Z,52.70
2019-05-13T09:06:14.547Z,53.03
2019-05-13T09:08:56.069Z,53.10
2019-05-13T09:15:03.221Z,52.87
2019-05-13T09:17:32.040Z,52.87
2019-05-13T09:20:02.835Z,53.23
2019-05-13T09:22:32.781Z,53.07
2019-05-13T09:25:02.627Z,53.27
2019-05-13T09:27:33.352Z,53.80
2019-05-13T09:30:03.254Z,53.27
2019-05-13T09:32:33.039Z,54.03
2019-05-13T09:35:03.169Z,52.80
2019-05-13T09:37:33.012Z,52.80
2019-05-13T09:40:28.016Z,53.07
2019-05-13T09:42:57.709Z,52.20
2019-05-13T09:45:28.497Z,51.73
2019-05-13T09:47:58.262Z,51.63
2019-05-13T09:50:32.327Z,51.57
2019-05-13T09:53:02.529Z,51.73
2019-05-13T09:55:32.558Z,51.87
2019-05-13T09:58:02.562Z,52.00
2019-05-13T10:00:32.476Z,51.83
2019-05-13T10:03:02.306Z,51.40
2019-05-13T10:05:32.030Z,51.67
2019-05-13T10:08:02.441Z,53.60
2019-05-13T10:10:32.322Z,51.77
2019-05-13T10:13:09.297Z,51.43
2019-05-13T10:15:33.505Z,51.50
2019-05-13T10:18:03.345Z,51.60
2019-05-13T10:20:59.241Z,51.37
2019-05-13T10:23:32.459Z,51.63
2019-05-13T10:26:03.870Z,52.13
2019-05-13T10:28:34.021Z,52.10
2019-05-13T10:31:03.971Z,51.70
2019-05-13T10:33:33.822Z,51.47
2019-05-13T10:36:03.990Z,52.10
2019-05-13T10:38:33.843Z,51.50
2019-05-13T10:41:03.973Z,51.53
2019-05-13T10:43:40.183Z,51.00
2019-05-13T10:46:05.407Z,51.17
2019-05-13T10:48:35.263Z,51.50
2019-05-13T10:51:05.275Z,51.23
2019-05-13T10:53:35.093Z,51.33
2019-05-13T10:56:05.058Z,51.33
2019-05-13T10:58:34.830Z,51.37
2019-05-13T11:01:06.034Z,51.37
2019-05-13T11:03:35.722Z,51.17
2019-05-13T11:06:05.685Z,51.27
2019-05-13T11:08:35.447Z,50.60
2019-05-13T11:11:05.293Z,51.53
2019-05-13T11:13:50.442Z,51.33
2019-05-13T11:16:06.495Z,50.93
2019-05-13T11:18:36.309Z,51.23
2019-05-13T11:21:06.082Z,51.00
2019-05-13T11:23:35.773Z,51.20
2019-05-13T11:26:05.536Z,51.03
2019-05-13T11:28:35.212Z,51.03
2019-05-13T11:31:04.984Z,51.30
2019-05-13T11:33:34.764Z,50.93
2019-05-13T11:36:04.722Z,51.07
2019-05-13T11:38:35.448Z,51.10
2019-05-13T11:41:05.325Z,50.90
2019-05-13T11:43:35.031Z,50.67
2019-05-13T11:46:04.866Z,51.10
2019-05-13T11:48:34.569Z,50.90
2019-05-13T11:51:04.517Z,51.23
2019-05-13T11:53:37.475Z,51.20
2019-05-13T11:56:05.739Z,51.23
2019-05-13T11:58:35.454Z,50.97
2019-05-13T12:01:05.895Z,51.30
2019-05-13T12:03:35.696Z,51.17
2019-05-13T12:06:05.636Z,50.90
2019-05-13T12:08:35.411Z,50.77
2019-05-13T12:11:06.432Z,50.70
2019-05-13T12:13:37.125Z,50.93
2019-05-13T12:16:06.917Z,50.90
2019-05-13T12:18:43.158Z,50.73
2019-05-13T12:21:08.081Z,50.90
2019-05-13T12:23:37.816Z,50.53
2019-05-13T12:26:07.589Z,50.87
2019-05-13T12:28:37.387Z,50.30
2019-05-13T12:31:07.143Z,50.20
2019-05-13T12:33:36.944Z,49.93
2019-05-13T12:36:07.763Z,49.80
2019-05-13T12:38:37.506Z,49.77
2019-05-13T12:41:07.619Z,49.70
2019-05-13T12:43:37.361Z,49.73
2019-05-13T12:46:07.547Z,49.63
2019-05-13T12:48:37.357Z,50.03
2019-05-13T12:51:07.091Z,49.97
2019-05-13T12:53:36.870Z,49.60
2019-05-13T12:56:07.012Z,49.53
2019-05-13T12:58:36.736Z,50.10
2019-05-13T13:01:06.590Z,49.90
2019-05-13T13:03:36.430Z,49.90
2019-05-13T13:06:39.576Z,50.40
2019-05-13T13:08:43.550Z,50.30
2019-05-13T13:11:09.225Z,50.47
2019-05-13T13:13:57.981Z,50.40
2019-05-13T13:16:12.623Z,50.57
2019-05-13T13:18:43.534Z,50.27
2019-05-13T13:21:14.783Z,51.17
2019-05-13T13:23:44.723Z,50.27
2019-05-13T13:26:16.212Z,50.70
2019-05-13T13:28:54.994Z,50.67
2019-05-13T13:31:25.145Z,50.60
2019-05-13T13:33:55.145Z,50.30
2019-05-13T13:36:24.514Z,50.30
2019-05-13T13:38:56.179Z,50.20
2019-05-13T13:41:26.094Z,50.30
2019-05-13T13:43:55.801Z,50.10
2019-05-13T13:46:36.307Z,50.10
2019-05-13T13:48:56.999Z,50.13
2019-05-13T13:51:27.260Z,50.97
2019-05-13T13:53:57.170Z,50.13
2019-05-13T13:56:27.950Z,50.60
2019-05-13T13:58:57.770Z,50.20
2019-05-13T14:01:27.768Z,50.10
2019-05-13T14:03:57.750Z,49.90
2019-05-13T14:09:01.391Z,50.13
2019-05-13T14:11:37.338Z,50.37
2019-05-13T14:14:09.583Z,50.90
2019-05-13T14:16:41.980Z,50.53
2019-05-13T14:19:11.043Z,50.90
2019-05-13T14:21:41.636Z,50.90
2019-05-13T14:24:12.223Z,51.07
2019-05-13T14:26:43.404Z,51.20
2019-05-13T14:29:13.427Z,51.50
2019-05-13T14:31:43.481Z,51.33
2019-05-13T14:34:13.286Z,50.87
2019-05-13T14:36:43.038Z,50.70
2019-05-13T14:39:12.769Z,51.53
2019-05-13T14:41:42.739Z,51.13
2019-05-13T14:44:12.689Z,50.87
2019-05-13T14:46:47.502Z,50.80
2019-05-13T14:49:13.939Z,50.73
2019-05-13T14:51:43.829Z,51.10
2019-05-13T14:54:13.664Z,50.80
2019-05-13T14:56:43.444Z,50.80
2019-05-13T14:59:13.603Z,50.93
2019-05-13T15:01:43.467Z,51.10
2019-05-13T15:04:13.161Z,50.90
2019-05-13T15:06:43.002Z,50.90
2019-05-13T15:09:12.911Z,49.77
2019-05-13T15:11:42.826Z,49.27
2019-05-13T15:14:12.678Z,49.30
2019-05-13T15:16:42.676Z,48.93
2019-05-13T15:19:12.408Z,49.13
2019-05-13T15:21:42.200Z,49.33
2019-05-13T15:24:12.689Z,49.33
2019-05-13T15:26:43.005Z,49.33
2019-05-13T15:29:13.019Z,49.30
2019-05-13T15:31:42.907Z,49.83
2019-05-13T15:34:12.737Z,49.77
2019-05-13T15:36:42.482Z,49.83
2019-05-13T15:39:12.167Z,49.60
2019-05-13T15:41:42.204Z,50.07
2019-05-13T15:44:12.079Z,50.13
2019-05-13T15:46:41.969Z,49.90
2019-05-13T15:49:12.518Z,50.47
2019-05-13T15:51:42.482Z,50.40
2019-05-13T15:54:15.603Z,50.10
2019-05-13T15:56:43.761Z,50.10
2019-05-13T15:59:13.529Z,50.47
2019-05-13T16:01:43.247Z,51.70
2019-05-13T16:04:33.021Z,50.40
2019-05-13T16:06:44.581Z,50.57
2019-05-13T16:09:14.363Z,51.00
2019-05-13T16:11:44.364Z,50.77
2019-05-13T16:14:14.227Z,50.67
2019-05-13T16:16:44.019Z,51.10
2019-05-13T16:19:13.781Z,50.50
2019-05-13T16:21:43.560Z,50.77
2019-05-13T16:24:13.609Z,51.00
2019-05-13T16:26:43.371Z,50.93
2019-05-13T16:29:13.228Z,50.87
2019-05-13T16:31:43.088Z,50.87
2019-05-13T16:34:13.491Z,51.13
2019-05-13T16:36:43.572Z,51.03
2019-05-13T16:39:13.459Z,51.00
2019-05-13T16:41:43.179Z,51.00
2019-05-13T16:44:13.011Z,50.87
2019-05-13T16:46:42.780Z,50.90
2019-05-13T16:49:12.656Z,50.70
2019-05-13T16:51:42.839Z,50.83
2019-05-13T16:54:12.609Z,51.20
2019-05-13T16:56:42.501Z,50.83
2019-05-13T16:59:12.425Z,50.60
2019-05-13T17:01:43.200Z,51.03
2019-05-13T17:04:12.916Z,50.80
2019-05-13T17:06:42.723Z,50.73
2019-05-13T17:09:12.513Z,50.90
2019-05-13T17:11:42.300Z,51.20
2019-05-13T17:14:12.052Z,50.87
2019-05-13T17:16:41.851Z,50.70
2019-05-13T17:19:12.257Z,51.23
2019-05-13T17:21:43.082Z,50.87
2019-05-13T17:24:12.794Z,50.73
2019-05-13T17:26:42.689Z,50.93
2019-05-13T17:29:12.390Z,50.90
2019-05-13T17:31:42.056Z,51.17
2019-05-13T17:34:12.181Z,50.77
2019-05-13T17:36:42.241Z,50.67
2019-05-13T17:39:12.756Z,51.27
2019-05-13T17:41:42.490Z,51.00
2019-05-13T17:44:12.197Z,50.67
2019-05-13T17:46:42.161Z,50.70
2019-05-13T17:49:12.117Z,50.80
2019-05-13T17:51:42.476Z,50.83
2019-05-13T17:54:12.546Z,50.67
2019-05-13T17:56:42.228Z,50.57
2019-05-13T17:59:11.992Z,50.70
2019-05-13T18:01:41.792Z,51.23
2019-05-13T18:04:12.052Z,50.70
2019-05-13T18:06:42.298Z,50.73
2019-05-13T18:09:12.265Z,50.80
2019-05-13T18:11:42.065Z,50.63
2019-05-13T18:14:11.950Z,51.00
2019-05-13T18:16:42.037Z,50.77
2019-05-13T18:19:12.209Z,50.57
2019-05-13T18:21:42.552Z,50.73
2019-05-13T18:24:12.407Z,50.47
2019-05-13T18:26:43.161Z,50.50
2019-05-13T18:29:12.953Z,50.40
2019-05-13T18:31:42.715Z,50.67
2019-05-13T18:34:12.514Z,50.33
2019-05-13T18:36:42.774Z,50.50
2019-05-13T18:39:12.712Z,50.17
2019-05-13T18:41:42.465Z,50.37
2019-05-13T18:44:12.516Z,50.07
2019-05-13T18:46:42.405Z,51.17
2019-05-13T18:49:12.352Z,50.63
2019-05-13T18:51:42.433Z,50.73
2019-05-13T18:54:12.357Z,50.13
2019-05-13T18:56:42.283Z,50.27
2019-05-13T18:59:12.705Z,50.13
2019-05-13T19:01:44.172Z,50.20
2019-05-13T19:04:13.933Z,50.13
2019-05-13T19:06:51.648Z,50.07
2019-05-13T19:09:21.797Z,50.40
2019-05-13T19:11:51.659Z,50.10
2019-05-13T19:14:21.530Z,50.70
2019-05-13T19:16:51.334Z,50.23
2019-05-13T19:19:22.950Z,50.10
2019-05-13T19:21:52.804Z,50.20
2019-05-13T19:24:22.655Z,50.27
2019-05-13T19:26:52.459Z,50.23
2019-05-13T19:29:22.198Z,50.37
2019-05-13T19:31:51.950Z,50.07
2019-05-13T19:34:21.865Z,50.43
2019-05-13T19:36:51.722Z,50.20
2019-05-13T19:39:21.714Z,50.23
2019-05-13T19:41:51.651Z,50.03
2019-05-13T19:44:22.057Z,50.13
2019-05-13T19:46:52.422Z,51.27
2019-05-13T19:49:32.157Z,50.40
2019-05-13T19:51:53.811Z,50.63
2019-05-13T19:54:23.535Z,50.47
2019-05-13T19:56:53.313Z,50.40
2019-05-13T19:59:23.082Z,50.13
2019-05-13T20:01:52.844Z,50.47
2019-05-13T20:04:22.573Z,50.40
2019-05-13T20:06:52.265Z,50.80
2019-05-13T20:09:21.965Z,50.30
2019-05-13T20:11:55.292Z,50.43
2019-05-13T20:14:23.393Z,50.00
2019-05-13T20:16:53.165Z,50.50
2019-05-13T20:19:23.043Z,50.90
2019-05-13T20:21:52.736Z,50.10
2019-05-13T20:24:22.451Z,50.10
2019-05-13T20:26:52.305Z,50.17
2019-05-13T20:29:22.012Z,50.70
2019-05-13T20:31:51.913Z,50.70
2019-05-13T20:34:22.255Z,50.30
2019-05-13T20:36:52.012Z,50.50
2019-05-13T20:39:22.468Z,50.20
2019-05-13T20:41:55.709Z,50.13
2019-05-13T20:44:23.792Z,50.37
2019-05-13T20:46:53.557Z,50.30
2019-05-13T20:49:23.259Z,50.10
2019-05-13T20:51:52.949Z,50.37
2019-05-13T20:54:22.652Z,49.97
2019-05-13T20:56:52.419Z,50.00
2019-05-13T20:59:22.184Z,50.77
2019-05-13T21:01:51.957Z,49.97
2019-05-13T21:04:21.775Z,49.53
2019-05-13T21:06:51.727Z,49.80
2019-05-13T21:09:21.598Z,49.60
2019-05-13T21:11:51.608Z,49.77
2019-05-13T21:14:21.705Z,49.77
2019-05-13T21:16:53.559Z,49.80
2019-05-13T21:19:23.013Z,49.57
2019-05-13T21:21:52.742Z,49.73
2019-05-13T21:24:22.604Z,49.90
2019-05-13T21:26:52.270Z,49.80
2019-05-13T21:29:22.296Z,49.57
2019-05-13T21:31:52.945Z,49.90
2019-05-13T21:34:22.845Z,49.57
2019-05-13T21:36:52.621Z,49.43
2019-05-13T21:39:22.447Z,49.70
2019-05-13T21:41:52.145Z,49.70
2019-05-13T21:44:21.856Z,49.57
2019-05-13T21:46:51.705Z,49.50
2019-05-13T21:49:21.601Z,49.53
2019-05-13T21:51:52.159Z,49.10
2019-05-13T21:54:22.077Z,49.07
2019-05-13T21:56:51.897Z,49.53
2019-05-13T21:59:23.313Z,49.50
2019-05-13T22:01:53.255Z,49.70
2019-05-13T22:04:23.200Z,49.50
2019-05-13T22:06:52.986Z,49.67
2019-05-13T22:09:22.765Z,49.40
2019-05-13T22:11:52.587Z,49.27
2019-05-13T22:14:22.465Z,49.27
2019-05-13T22:16:52.214Z,49.60
2019-05-13T22:19:22.291Z,49.50
2019-05-13T22:21:52.100Z,50.00
2019-05-13T22:24:22.173Z,49.33
2019-05-13T22:26:51.965Z,49.30
2019-05-13T22:29:23.271Z,49.27
2019-05-13T22:31:53.034Z,49.57
2019-05-13T22:34:23.742Z,49.17
2019-05-13T22:36:53.566Z,49.67
2019-05-13T22:39:23.358Z,49.73
2019-05-13T22:41:53.161Z,49.37
2019-05-13T22:44:22.928Z,49.13
2019-05-13T22:46:52.644Z,49.70
2019-05-13T22:49:22.356Z,49.50
2019-05-13T22:51:52.148Z,49.47
2019-05-13T22:54:22.032Z,49.50
2019-05-13T22:56:52.331Z,49.13
2019-05-13T22:59:22.137Z,49.20
2019-05-13T23:01:52.396Z,49.07
2019-05-13T23:04:22.286Z,49.20
2019-05-13T23:06:52.122Z,49.20
2019-05-13T23:09:21.912Z,49.20
2019-05-13T23:11:51.627Z,49.23
2019-05-13T23:14:21.979Z,49.20
2019-05-13T23:16:51.877Z,48.97
2019-05-13T23:19:21.851Z,49.13
2019-05-13T23:21:51.552Z,49.37
2019-05-13T23:24:21.821Z,49.33
2019-05-13T23:26:51.781Z,49.50
2019-05-13T23:29:21.645Z,49.27
2019-05-13T23:31:52.397Z,49.10
2019-05-13T23:34:22.414Z,49.07
2019-05-13T23:36:52.173Z,49.13
2019-05-13T23:39:21.962Z,49.47
2019-05-13T23:41:52.232Z,49.17
2019-05-13T23:44:27.707Z,49.30
2019-05-13T23:46:53.665Z,49.30
2019-05-13T23:49:23.456Z,49.17
2019-05-13T23:51:53.237Z,49.50
2019-05-13T23:54:22.954Z,49.13
2019-05-13T23:56:52.815Z,49.10
2019-05-13T23:59:22.700Z,49.27
